Skip Navigation Links
NOAA logo - Click to go to the NOAA homepage
NOAA's National Weather Service
Alaska Aviation Weather Unit
  NWS logo - Click to go to the NWS homepage
Left Navbar Graphic     19 AKDT = 03 GMT

   
NOAA is celebrating 200 years of science, service, and stewardship. Visit the NOAA 200th celebration Web site to learn more.
USA.gov is the U.S. Government's official Web portal to all Federal, state and local government Web resources and services.
Facebook
NWS on Facebook

Important Change Regarding the AAWU Web Presence

 

Over the last several months, the AAWU has been working to navigate its webpages to a nationally supported server. Security, as well as other needs, have necessitated the change.  In the process, we have made an effort to enhance the functionality of our website, as well as some of our products. As of June 20, 2017, aawu.arh.noaa.gov will be discontinued. The new AAWU web address is weather.gov/aawu. It is now live and will run in-parallel with the old site until it is discontinued. Please send any feedback or questions regarding the new webpages to nws.ar.aawu.webauthors@noaa.gov.  Thank you for your patience during this time of transition.
AAWU Home :: Display TAF Add Bookmark
TAF PACV 242322Z 2500/2524 11011KT 6SM -RA BR SCT015 OVC025
     FM251200 13007KT P6SM -SHRA SCT025 OVC035=
SPECI PACV 242109Z 07005KT 9SM -RA BKN025 BKN032 OVC041 08/06 A3019 RMK
     AO2 P0001 T00780061=

METAR PACV 242153Z 09006KT 10SM -RA OVC024 08/06 A3018 RMK AO2 SLP220
     P0003 T00780061=

METAR PACV 242253Z 10006KT 8SM -RA OVC023 08/06 A3017 RMK AO2 SLP217
     P0002 T00780061=

METAR PACV 242353Z 08006KT 7SM -RA OVC022 08/06 A3016 RMK AO2 SLP214
     P0002 60012 T00780061 10083 20061 58009=

METAR PACV 250053Z 09007KT 10SM -RA BKN024 OVC031 08/06 A3015 RMK
 AO2 SLP210 P0004 T00780061=

METAR PACV 250153Z 10008KT 6SM -RA BR BKN022 BKN028 OVC033 08/06
 A3014 RMK AO2 SLP208 P0003 T00780061=

METAR PACV 250253Z 13005KT 5SM -RA BR BKN021 OVC028 07/07 A3012 RMK
 AO2 SLP200 P0007 60014 T00720067 58014=


NOAA's National Weather Service
Alaska Aviation Weather Unit
6930 Sand Lake Road
Anchorage, AK 99502-1845
Disclaimer
Credits
Glossary
Privacy Policy
About Us
Career Opportunities
Contact AAWU Internet Services Site last modified: April, 17th 2012